sensor_id;sensor_type;location;lat;lon;timestamp;temperature;humidity
57857;DHT22;43683;48.650;9.290;2023-05-10T00:01:54;13.70;92.90
57857;DHT22;43683;48.650;9.290;2023-05-10T00:04:19;13.60;92.90
57857;DHT22;43683;48.650;9.290;2023-05-10T00:06:45;13.60;93.00
57857;DHT22;43683;48.650;9.290;2023-05-10T00:09:11;13.60;93.00
57857;DHT22;43683;48.650;9.290;2023-05-10T00:11:37;13.60;93.00
57857;DHT22;43683;48.650;9.290;2023-05-10T00:14:02;13.50;93.00
57857;DHT22;43683;48.650;9.290;2023-05-10T00:16:28;13.60;93.10
57857;DHT22;43683;48.650;9.290;2023-05-10T00:18:53;13.60;93.10
57857;DHT22;43683;48.650;9.290;2023-05-10T00:21:19;13.60;93.10
57857;DHT22;43683;48.650;9.290;2023-05-10T00:23:44;13.60;93.00
57857;DHT22;43683;48.650;9.290;2023-05-10T00:26:11;13.60;93.00
57857;DHT22;43683;48.650;9.290;2023-05-10T00:28:37;13.60;93.10
57857;DHT22;43683;48.650;9.290;2023-05-10T00:31:02;13.60;93.10
57857;DHT22;43683;48.650;9.290;2023-05-10T00:33:28;13.60;93.10
57857;DHT22;43683;48.650;9.290;2023-05-10T00:35:53;13.60;93.20
57857;DHT22;43683;48.650;9.290;2023-05-10T00:38:19;13.50;93.20
57857;DHT22;43683;48.650;9.290;2023-05-10T00:40:44;13.40;93.20
57857;DHT22;43683;48.650;9.290;2023-05-10T00:43:10;13.40;93.30
57857;DHT22;43683;48.650;9.290;2023-05-10T00:45:35;13.30;93.30
57857;DHT22;43683;48.650;9.290;2023-05-10T00:48:02;13.30;93.30
57857;DHT22;43683;48.650;9.290;2023-05-10T00:50:29;13.20;93.30
57857;DHT22;43683;48.650;9.290;2023-05-10T00:52:55;13.00;93.50
57857;DHT22;43683;48.650;9.290;2023-05-10T00:55:21;12.80;93.60
57857;DHT22;43683;48.650;9.290;2023-05-10T00:57:47;12.70;93.70
57857;DHT22;43683;48.650;9.290;2023-05-10T01:00:13;12.70;93.70
57857;DHT22;43683;48.650;9.290;2023-05-10T01:02:46;12.60;93.60
57857;DHT22;43683;48.650;9.290;2023-05-10T01:05:12;12.60;93.60
57857;DHT22;43683;48.650;9.290;2023-05-10T01:07:38;12.50;93.60
57857;DHT22;43683;48.650;9.290;2023-05-10T01:10:07;12.50;93.60
57857;DHT22;43683;48.650;9.290;2023-05-10T01:12:36;12.40;93.60
57857;DHT22;43683;48.650;9.290;2023-05-10T01:15:03;12.40;93.60
57857;DHT22;43683;48.650;9.290;2023-05-10T01:17:30;12.40;93.60
57857;DHT22;43683;48.650;9.290;2023-05-10T01:19:55;12.40;93.60
57857;DHT22;43683;48.650;9.290;2023-05-10T01:33:52;12.40;93.50
57857;DHT22;43683;48.650;9.290;2023-05-10T01:36:35;12.40;93.50
57857;DHT22;43683;48.650;9.290;2023-05-10T01:39:23;12.40;93.50
57857;DHT22;43683;48.650;9.290;2023-05-10T01:42:14;12.50;93.40
57857;DHT22;43683;48.650;9.290;2023-05-10T01:47:50;12.60;93.20
57857;DHT22;43683;48.650;9.290;2023-05-10T01:50:24;12.70;93.10
57857;DHT22;43683;48.650;9.290;2023-05-10T01:52:53;12.70;92.90
57857;DHT22;43683;48.650;9.290;2023-05-10T01:55:21;12.80;92.90
57857;DHT22;43683;48.650;9.290;2023-05-10T01:57:52;12.70;92.80
57857;DHT22;43683;48.650;9.290;2023-05-10T02:00:22;12.80;93.00
57857;DHT22;43683;48.650;9.290;2023-05-10T02:02:49;12.70;93.00
57857;DHT22;43683;48.650;9.290;2023-05-10T02:05:17;12.80;93.00
57857;DHT22;43683;48.650;9.290;2023-05-10T02:07:43;12.70;93.00
57857;DHT22;43683;48.650;9.290;2023-05-10T02:10:10;12.80;93.00
57857;DHT22;43683;48.650;9.290;2023-05-10T02:12:39;12.70;93.00
57857;DHT22;43683;48.650;9.290;2023-05-10T02:15:07;12.70;93.00
57857;DHT22;43683;48.650;9.290;2023-05-10T02:17:33;12.70;93.00
57857;DHT22;43683;48.650;9.290;2023-05-10T02:19:59;12.70;93.00
57857;DHT22;43683;48.650;9.290;2023-05-10T02:22:27;12.70;93.10
57857;DHT22;43683;48.650;9.290;2023-05-10T02:24:55;12.70;93.10
57857;DHT22;43683;48.650;9.290;2023-05-10T02:27:23;12.70;93.10
57857;DHT22;43683;48.650;9.290;2023-05-10T02:29:50;12.60;93.10
57857;DHT22;43683;48.650;9.290;2023-05-10T02:32:17;12.60;93.10
57857;DHT22;43683;48.650;9.290;2023-05-10T02:34:44;12.60;93.10
57857;DHT22;43683;48.650;9.290;2023-05-10T02:37:12;12.60;93.20
57857;DHT22;43683;48.650;9.290;2023-05-10T02:39:39;12.50;93.20
57857;DHT22;43683;48.650;9.290;2023-05-10T02:42:11;12.40;93.20
57857;DHT22;43683;48.650;9.290;2023-05-10T02:44:41;12.40;93.20
57857;DHT22;43683;48.650;9.290;2023-05-10T02:47:07;12.40;93.30
57857;DHT22;43683;48.650;9.290;2023-05-10T02:49:32;12.40;93.20
57857;DHT22;43683;48.650;9.290;2023-05-10T02:52:01;12.40;93.30
57857;DHT22;43683;48.650;9.290;2023-05-10T02:54:32;12.40;93.30
57857;DHT22;43683;48.650;9.290;2023-05-10T02:57:00;12.40;93.30
57857;DHT22;43683;48.650;9.290;2023-05-10T02:59:29;12.40;93.20
57857;DHT22;43683;48.650;9.290;2023-05-10T03:01:54;12.40;93.20
57857;DHT22;43683;48.650;9.290;2023-05-10T03:04:20;12.40;93.20
57857;DHT22;43683;48.650;9.290;2023-05-10T03:06:45;12.40;93.10
57857;DHT22;43683;48.650;9.290;2023-05-10T03:09:12;12.40;93.10
57857;DHT22;43683;48.650;9.290;2023-05-10T03:11:55;12.40;93.20
57857;DHT22;43683;48.650;9.290;2023-05-10T03:14:56;12.40;93.20
57857;DHT22;43683;48.650;9.290;2023-05-10T03:19:56;12.40;93.20
57857;DHT22;43683;48.650;9.290;2023-05-10T03:22:37;12.30;93.30
57857;DHT22;43683;48.650;9.290;2023-05-10T03:25:06;12.20;93.40
57857;DHT22;43683;48.650;9.290;2023-05-10T03:27:32;12.20;93.50
57857;DHT22;43683;48.650;9.290;2023-05-10T03:29:59;12.20;93.60
57857;DHT22;43683;48.650;9.290;2023-05-10T03:32:26;12.10;93.60
57857;DHT22;43683;48.650;9.290;2023-05-10T03:34:54;12.20;93.50
57857;DHT22;43683;48.650;9.290;2023-05-10T03:37:19;12.20;93.40
57857;DHT22;43683;48.650;9.290;2023-05-10T03:39:45;12.20;93.40
57857;DHT22;43683;48.650;9.290;2023-05-10T03:42:10;12.20;93.40
57857;DHT22;43683;48.650;9.290;2023-05-10T03:44:38;12.20;93.30
57857;DHT22;43683;48.650;9.290;2023-05-10T03:47:04;12.20;93.30
57857;DHT22;43683;48.650;9.290;2023-05-10T03:49:29;12.20;93.30
57857;DHT22;43683;48.650;9.290;2023-05-10T03:51:55;12.20;93.30
57857;DHT22;43683;48.650;9.290;2023-05-10T03:54:20;12.20;93.30
57857;DHT22;43683;48.650;9.290;2023-05-10T03:56:45;12.20;93.40
57857;DHT22;43683;48.650;9.290;2023-05-10T03:59:13;12.30;93.40
57857;DHT22;43683;48.650;9.290;2023-05-10T04:01:39;12.30;93.30
57857;DHT22;43683;48.650;9.290;2023-05-10T04:04:04;12.30;93.30
57857;DHT22;43683;48.650;9.290;2023-05-10T04:06:30;12.40;93.30
57857;DHT22;43683;48.650;9.290;2023-05-10T04:08:56;12.40;93.20
57857;DHT22;43683;48.650;9.290;2023-05-10T04:11:25;12.40;93.20
57857;DHT22;43683;48.650;9.290;2023-05-10T04:13:50;12.40;93.10
57857;DHT22;43683;48.650;9.290;2023-05-10T04:16:16;12.40;93.10
57857;DHT22;43683;48.650;9.290;2023-05-10T04:18:41;12.40;93.10
57857;DHT22;43683;48.650;9.290;2023-05-10T04:21:13;12.30;93.10
57857;DHT22;43683;48.650;9.290;2023-05-10T04:23:39;12.20;93.10
57857;DHT22;43683;48.650;9.290;2023-05-10T04:26:05;12.20;93.20
57857;DHT22;43683;48.650;9.290;2023-05-10T04:28:30;12.10;93.30
57857;DHT22;43683;48.650;9.290;2023-05-10T04:31:03;12.10;93.40
57857;DHT22;43683;48.650;9.290;2023-05-10T04:33:29;12.00;93.50
57857;DHT22;43683;48.650;9.290;2023-05-10T04:35:54;12.00;93.50
57857;DHT22;43683;48.650;9.290;2023-05-10T04:38:20;12.00;93.40
57857;DHT22;43683;48.650;9.290;2023-05-10T04:40:45;12.10;93.40
57857;DHT22;43683;48.650;9.290;2023-05-10T04:43:11;12.10;93.40
57857;DHT22;43683;48.650;9.290;2023-05-10T04:45:36;12.20;93.30
57857;DHT22;43683;48.650;9.290;2023-05-10T04:48:02;12.20;93.30
57857;DHT22;43683;48.650;9.290;2023-05-10T04:50:27;12.20;93.20
57857;DHT22;43683;48.650;9.290;2023-05-10T04:52:53;12.20;93.20
57857;DHT22;43683;48.650;9.290;2023-05-10T04:55:18;12.20;93.10
57857;DHT22;43683;48.650;9.290;2023-05-10T04:57:44;12.30;93.10
57857;DHT22;43683;48.650;9.290;2023-05-10T05:00:10;12.30;93.10
57857;DHT22;43683;48.650;9.290;2023-05-10T05:02:36;12.40;93.10
57857;DHT22;43683;48.650;9.290;2023-05-10T05:05:01;12.50;93.00
57857;DHT22;43683;48.650;9.290;2023-05-10T05:07:27;12.50;92.90
57857;DHT22;43683;48.650;9.290;2023-05-10T05:09:52;12.50;92.90
57857;DHT22;43683;48.650;9.290;2023-05-10T05:12:18;12.60;92.80
57857;DHT22;43683;48.650;9.290;2023-05-10T05:14:43;12.70;92.80
57857;DHT22;43683;48.650;9.290;2023-05-10T05:17:09;12.80;92.70
57857;DHT22;43683;48.650;9.290;2023-05-10T05:19:34;12.80;92.70
57857;DHT22;43683;48.650;9.290;2023-05-10T05:22:01;12.90;92.60
57857;DHT22;43683;48.650;9.290;2023-05-10T05:24:26;12.90;92.60
57857;DHT22;43683;48.650;9.290;2023-05-10T05:26:52;13.00;92.90
57857;DHT22;43683;48.650;9.290;2023-05-10T05:29:17;13.10;92.50
57857;DHT22;43683;48.650;9.290;2023-05-10T05:31:43;13.20;92.40
57857;DHT22;43683;48.650;9.290;2023-05-10T05:34:08;13.20;92.30
57857;DHT22;43683;48.650;9.290;2023-05-10T05:36:37;13.30;92.30
57857;DHT22;43683;48.650;9.290;2023-05-10T05:39:05;13.40;92.20
57857;DHT22;43683;48.650;9.290;2023-05-10T05:41:31;13.50;92.10
57857;DHT22;43683;48.650;9.290;2023-05-10T05:43:56;13.60;91.90
57857;DHT22;43683;48.650;9.290;2023-05-10T05:46:22;13.70;91.80
57857;DHT22;43683;48.650;9.290;2023-05-10T05:48:47;13.80;91.70
57857;DHT22;43683;48.650;9.290;2023-05-10T05:51:13;13.80;91.70
57857;DHT22;43683;48.650;9.290;2023-05-10T05:53:38;13.80;91.70
57857;DHT22;43683;48.650;9.290;2023-05-10T05:56:04;13.80;91.70
57857;DHT22;43683;48.650;9.290;2023-05-10T05:58:29;13.70;91.80
57857;DHT22;43683;48.650;9.290;2023-05-10T06:00:55;13.70;91.80
57857;DHT22;43683;48.650;9.290;2023-05-10T06:03:21;13.70;91.90
57857;DHT22;43683;48.650;9.290;2023-05-10T06:05:46;13.70;91.90
57857;DHT22;43683;48.650;9.290;2023-05-10T06:08:12;13.80;91.90
57857;DHT22;43683;48.650;9.290;2023-05-10T06:10:37;13.80;91.80
57857;DHT22;43683;48.650;9.290;2023-05-10T06:13:03;13.80;91.80
57857;DHT22;43683;48.650;9.290;2023-05-10T06:15:29;13.90;91.70
57857;DHT22;43683;48.650;9.290;2023-05-10T06:17:55;14.00;91.60
57857;DHT22;43683;48.650;9.290;2023-05-10T06:20:21;14.10;91.50
57857;DHT22;43683;48.650;9.290;2023-05-10T06:22:46;14.10;91.30
57857;DHT22;43683;48.650;9.290;2023-05-10T06:25:12;14.10;91.30
57857;DHT22;43683;48.650;9.290;2023-05-10T06:27:37;14.10;91.30
57857;DHT22;43683;48.650;9.290;2023-05-10T06:30:03;14.10;91.30
57857;DHT22;43683;48.650;9.290;2023-05-10T06:32:30;14.20;91.20
57857;DHT22;43683;48.650;9.290;2023-05-10T06:34:55;14.20;91.20
57857;DHT22;43683;48.650;9.290;2023-05-10T06:37:21;14.30;91.10
57857;DHT22;43683;48.650;9.290;2023-05-10T06:39:46;14.20;91.10
57857;DHT22;43683;48.650;9.290;2023-05-10T06:42:12;14.10;91.10
57857;DHT22;43683;48.650;9.290;2023-05-10T06:44:37;14.10;91.20
57857;DHT22;43683;48.650;9.290;2023-05-10T06:47:03;14.10;91.30
57857;DHT22;43683;48.650;9.290;2023-05-10T06:49:28;14.00;91.30
57857;DHT22;43683;48.650;9.290;2023-05-10T06:51:55;14.00;91.30
57857;DHT22;43683;48.650;9.290;2023-05-10T06:54:21;14.00;91.20
57857;DHT22;43683;48.650;9.290;2023-05-10T06:56:46;14.10;91.00
57857;DHT22;43683;48.650;9.290;2023-05-10T06:59:12;14.20;90.90
57857;DHT22;43683;48.650;9.290;2023-05-10T07:01:39;14.30;90.80
57857;DHT22;43683;48.650;9.290;2023-05-10T07:04:04;14.30;90.70
57857;DHT22;43683;48.650;9.290;2023-05-10T07:06:30;14.30;90.80
57857;DHT22;43683;48.650;9.290;2023-05-10T07:08:55;14.30;90.80
57857;DHT22;43683;48.650;9.290;2023-05-10T07:11:21;14.40;90.80
57857;DHT22;43683;48.650;9.290;2023-05-10T07:13:46;14.40;90.80
57857;DHT22;43683;48.650;9.290;2023-05-10T07:16:12;14.40;90.80
57857;DHT22;43683;48.650;9.290;2023-05-10T07:18:37;14.40;90.80
57857;DHT22;43683;48.650;9.290;2023-05-10T07:21:03;14.50;90.80
57857;DHT22;43683;48.650;9.290;2023-05-10T07:23:28;14.70;90.50
57857;DHT22;43683;48.650;9.290;2023-05-10T07:25:55;14.90;90.30
57857;DHT22;43683;48.650;9.290;2023-05-10T07:28:22;15.10;90.10
57857;DHT22;43683;48.650;9.290;2023-05-10T07:30:48;15.20;89.90
57857;DHT22;43683;48.650;9.290;2023-05-10T07:33:14;15.20;89.80
57857;DHT22;43683;48.650;9.290;2023-05-10T07:35:40;15.10;90.00
57857;DHT22;43683;48.650;9.290;2023-05-10T07:38:05;15.10;90.00
57857;DHT22;43683;48.650;9.290;2023-05-10T07:40:31;15.30;89.70
57857;DHT22;43683;48.650;9.290;2023-05-10T07:42:57;15.50;89.10
57857;DHT22;43683;48.650;9.290;2023-05-10T07:45:22;15.70;88.50
57857;DHT22;43683;48.650;9.290;2023-05-10T07:47:49;15.80;87.90
57857;DHT22;43683;48.650;9.290;2023-05-10T07:50:14;15.70;87.90
57857;DHT22;43683;48.650;9.290;2023-05-10T07:52:40;15.70;87.90
57857;DHT22;43683;48.650;9.290;2023-05-10T07:55:06;15.80;87.80
57857;DHT22;43683;48.650;9.290;2023-05-10T07:57:34;15.70;87.80
57857;DHT22;43683;48.650;9.290;2023-05-10T07:59:59;15.60;88.00
57857;DHT22;43683;48.650;9.290;2023-05-10T08:02:25;15.60;88.10
57857;DHT22;43683;48.650;9.290;2023-05-10T08:04:50;15.60;88.00
57857;DHT22;43683;48.650;9.290;2023-05-10T08:07:16;15.60;87.80
57857;DHT22;43683;48.650;9.290;2023-05-10T08:09:42;15.40;87.70
57857;DHT22;43683;48.650;9.290;2023-05-10T08:12:07;15.50;87.80
57857;DHT22;43683;48.650;9.290;2023-05-10T08:14:33;15.50;87.70
57857;DHT22;43683;48.650;9.290;2023-05-10T08:16:58;15.50;87.70
57857;DHT22;43683;48.650;9.290;2023-05-10T08:19:24;15.40;87.90
57857;DHT22;43683;48.650;9.290;2023-05-10T08:21:50;15.50;87.70
57857;DHT22;43683;48.650;9.290;2023-05-10T08:24:15;15.60;87.40
57857;DHT22;43683;48.650;9.290;2023-05-10T08:26:41;15.70;87.20
57857;DHT22;43683;48.650;9.290;2023-05-10T08:29:06;15.80;86.60
57857;DHT22;43683;48.650;9.290;2023-05-10T08:31:32;16.00;86.20
57857;DHT22;43683;48.650;9.290;2023-05-10T08:33:57;16.10;86.00
57857;DHT22;43683;48.650;9.290;2023-05-10T08:36:23;16.20;85.60
57857;DHT22;43683;48.650;9.290;2023-05-10T08:38:53;16.30;85.30
57857;DHT22;43683;48.650;9.290;2023-05-10T08:41:22;16.30;85.00
57857;DHT22;43683;48.650;9.290;2023-05-10T08:43:50;16.50;84.50
57857;DHT22;43683;48.650;9.290;2023-05-10T08:46:18;16.60;83.90
57857;DHT22;43683;48.650;9.290;2023-05-10T08:48:48;16.70;83.40
57857;DHT22;43683;48.650;9.290;2023-05-10T08:51:18;16.80;83.20
57857;DHT22;43683;48.650;9.290;2023-05-10T08:53:45;17.00;82.90
57857;DHT22;43683;48.650;9.290;2023-05-10T08:56:11;16.80;82.90
57857;DHT22;43683;48.650;9.290;2023-05-10T08:58:37;16.90;82.70
57857;DHT22;43683;48.650;9.290;2023-05-10T09:01:03;16.90;82.50
57857;DHT22;43683;48.650;9.290;2023-05-10T09:03:30;17.00;82.50
57857;DHT22;43683;48.650;9.290;2023-05-10T09:05:56;17.10;82.00
57857;DHT22;43683;48.650;9.290;2023-05-10T09:08:26;17.30;81.40
57857;DHT22;43683;48.650;9.290;2023-05-10T09:10:51;17.40;81.00
57857;DHT22;43683;48.650;9.290;2023-05-10T09:13:19;17.60;80.30
57857;DHT22;43683;48.650;9.290;2023-05-10T09:15:45;17.90;79.50
57857;DHT22;43683;48.650;9.290;2023-05-10T09:18:11;18.10;78.90
57857;DHT22;43683;48.650;9.290;2023-05-10T09:20:36;18.20;78.70
57857;DHT22;43683;48.650;9.290;2023-05-10T09:23:02;18.00;78.80
57857;DHT22;43683;48.650;9.290;2023-05-10T09:25:27;18.10;78.90
57857;DHT22;43683;48.650;9.290;2023-05-10T09:27:53;18.30;78.70
57857;DHT22;43683;48.650;9.290;2023-05-10T09:30:25;18.50;78.30
57857;DHT22;43683;48.650;9.290;2023-05-10T09:32:52;18.30;77.70
57857;DHT22;43683;48.650;9.290;2023-05-10T09:35:19;18.20;77.60
57857;DHT22;43683;48.650;9.290;2023-05-10T09:37:47;18.40;76.90
57857;DHT22;43683;48.650;9.290;2023-05-10T09:40:18;18.50;76.10
57857;DHT22;43683;48.650;9.290;2023-05-10T09:45:20;18.70;74.40
57857;DHT22;43683;48.650;9.290;2023-05-10T09:47:46;18.60;74.40
57857;DHT22;43683;48.650;9.290;2023-05-10T09:50:11;18.60;74.10
57857;DHT22;43683;48.650;9.290;2023-05-10T09:53:19;18.60;73.90
57857;DHT22;43683;48.650;9.290;2023-05-10T09:55:46;18.50;73.30
57857;DHT22;43683;48.650;9.290;2023-05-10T09:58:13;18.60;73.30
57857;DHT22;43683;48.650;9.290;2023-05-10T10:00:40;18.80;73.20
57857;DHT22;43683;48.650;9.290;2023-05-10T10:03:07;18.80;73.10
57857;DHT22;43683;48.650;9.290;2023-05-10T10:05:40;18.70;73.70
57857;DHT22;43683;48.650;9.290;2023-05-10T10:08:06;18.50;73.80
57857;DHT22;43683;48.650;9.290;2023-05-10T10:10:32;18.30;74.10
57857;DHT22;43683;48.650;9.290;2023-05-10T10:12:58;18.00;74.50
57857;DHT22;43683;48.650;9.290;2023-05-10T10:15:24;17.80;74.90
57857;DHT22;43683;48.650;9.290;2023-05-10T10:17:51;17.70;74.70
57857;DHT22;43683;48.650;9.290;2023-05-10T10:20:18;17.80;74.10
57857;DHT22;43683;48.650;9.290;2023-05-10T10:22:44;18.00;73.40
57857;DHT22;43683;48.650;9.290;2023-05-10T10:25:14;18.10;73.10
57857;DHT22;43683;48.650;9.290;2023-05-10T10:30:25;18.50;71.60
57857;DHT22;43683;48.650;9.290;2023-05-10T10:35:45;19.00;69.80
57857;DHT22;43683;48.650;9.290;2023-05-10T10:38:12;19.30;69.80
57857;DHT22;43683;48.650;9.290;2023-05-10T10:40:38;19.50;69.30
57857;DHT22;43683;48.650;9.290;2023-05-10T10:46:12;19.70;68.30
57857;DHT22;43683;48.650;9.290;2023-05-10T10:48:43;19.30;69.20
57857;DHT22;43683;48.650;9.290;2023-05-10T10:51:13;19.00;70.10
57857;DHT22;43683;48.650;9.290;2023-05-10T10:53:40;19.00;69.80
57857;DHT22;43683;48.650;9.290;2023-05-10T10:56:09;19.10;69.20
57857;DHT22;43683;48.650;9.290;2023-05-10T10:58:37;19.30;69.20
57857;DHT22;43683;48.650;9.290;2023-05-10T11:01:10;19.30;68.70
57857;DHT22;43683;48.650;9.290;2023-05-10T11:03:36;19.20;69.10
57857;DHT22;43683;48.650;9.290;2023-05-10T11:06:01;19.10;68.90
57857;DHT22;43683;48.650;9.290;2023-05-10T11:08:29;18.90;69.20
57857;DHT22;43683;48.650;9.290;2023-05-10T11:13:40;18.50;69.70
57857;DHT22;43683;48.650;9.290;2023-05-10T11:16:24;18.30;69.90
57857;DHT22;43683;48.650;9.290;2023-05-10T11:18:58;18.10;69.80
57857;DHT22;43683;48.650;9.290;2023-05-10T11:21:24;17.90;70.60
57857;DHT22;43683;48.650;9.290;2023-05-10T11:23:52;17.30;71.80
57857;DHT22;43683;48.650;9.290;2023-05-10T11:26:21;16.60;72.80
57857;DHT22;43683;48.650;9.290;2023-05-10T11:28:53;16.00;73.30
57857;DHT22;43683;48.650;9.290;2023-05-10T11:31:21;15.70;73.40
57857;DHT22;43683;48.650;9.290;2023-05-10T11:33:48;15.40;73.40
57857;DHT22;43683;48.650;9.290;2023-05-10T11:36:18;15.10;73.70
57857;DHT22;43683;48.650;9.290;2023-05-10T11:38:44;14.70;75.00
57857;DHT22;43683;48.650;9.290;2023-05-10T11:41:11;14.10;75.50
57857;DHT22;43683;48.650;9.290;2023-05-10T11:43:39;13.40;76.90
57857;DHT22;43683;48.650;9.290;2023-05-10T11:46:06;12.80;78.50
57857;DHT22;43683;48.650;9.290;2023-05-10T11:48:32;12.30;80.10
57857;DHT22;43683;48.650;9.290;2023-05-10T11:50:58;12.10;81.20
57857;DHT22;43683;48.650;9.290;2023-05-10T11:53:27;11.90;81.70
57857;DHT22;43683;48.650;9.290;2023-05-10T11:55:52;11.80;82.00
57857;DHT22;43683;48.650;9.290;2023-05-10T11:58:18;11.80;82.20
57857;DHT22;43683;48.650;9.290;2023-05-10T12:00:44;11.90;82.10
57857;DHT22;43683;48.650;9.290;2023-05-10T12:03:11;11.90;82.00
57857;DHT22;43683;48.650;9.290;2023-05-10T12:05:37;12.10;82.00
57857;DHT22;43683;48.650;9.290;2023-05-10T12:08:15;12.30;81.90
57857;DHT22;43683;48.650;9.290;2023-05-10T12:10:41;12.40;82.20
57857;DHT22;43683;48.650;9.290;2023-05-10T12:13:13;12.60;81.80
57857;DHT22;43683;48.650;9.290;2023-05-10T12:15:39;12.90;82.60
57857;DHT22;43683;48.650;9.290;2023-05-10T12:18:05;13.20;81.50
57857;DHT22;43683;48.650;9.290;2023-05-10T12:20:31;13.50;81.20
57857;DHT22;43683;48.650;9.290;2023-05-10T12:22:58;13.90;80.70
57857;DHT22;43683;48.650;9.290;2023-05-10T12:25:29;14.20;80.40
57857;DHT22;43683;48.650;9.290;2023-05-10T12:27:56;14.50;79.70
57857;DHT22;43683;48.650;9.290;2023-05-10T12:30:27;14.90;78.60
57857;DHT22;43683;48.650;9.290;2023-05-10T12:32:53;15.30;77.80
57857;DHT22;43683;48.650;9.290;2023-05-10T12:35:19;15.50;77.20
57857;DHT22;43683;48.650;9.290;2023-05-10T12:37:50;15.50;77.10
57857;DHT22;43683;48.650;9.290;2023-05-10T12:40:16;15.50;77.50
57857;DHT22;43683;48.650;9.290;2023-05-10T12:42:42;15.40;78.10
57857;DHT22;43683;48.650;9.290;2023-05-10T12:45:08;15.30;78.90
57857;DHT22;43683;48.650;9.290;2023-05-10T12:47:34;15.30;80.20
57857;DHT22;43683;48.650;9.290;2023-05-10T12:50:01;15.40;79.70
57857;DHT22;43683;48.650;9.290;2023-05-10T12:52:27;15.60;79.40
57857;DHT22;43683;48.650;9.290;2023-05-10T12:54:53;15.70;79.00
57857;DHT22;43683;48.650;9.290;2023-05-10T12:57:20;15.90;79.00
57857;DHT22;43683;48.650;9.290;2023-05-10T12:59:46;16.00;78.50
57857;DHT22;43683;48.650;9.290;2023-05-10T13:02:11;16.10;78.40
57857;DHT22;43683;48.650;9.290;2023-05-10T13:04:37;16.10;78.70
57857;DHT22;43683;48.650;9.290;2023-05-10T13:07:06;16.30;78.60
57857;DHT22;43683;48.650;9.290;2023-05-10T13:09:32;16.60;77.90
57857;DHT22;43683;48.650;9.290;2023-05-10T13:11:57;16.90;77.00
57857;DHT22;43683;48.650;9.290;2023-05-10T13:14:23;17.20;76.30
57857;DHT22;43683;48.650;9.290;2023-05-10T13:16:48;17.40;75.60
57857;DHT22;43683;48.650;9.290;2023-05-10T13:19:15;17.60;75.30
57857;DHT22;43683;48.650;9.290;2023-05-10T13:21:41;17.90;74.80
57857;DHT22;43683;48.650;9.290;2023-05-10T13:24:07;18.10;74.40
57857;DHT22;43683;48.650;9.290;2023-05-10T13:26:33;18.00;74.40
57857;DHT22;43683;48.650;9.290;2023-05-10T13:28:58;18.00;74.50
57857;DHT22;43683;48.650;9.290;2023-05-10T13:31:24;17.90;74.40
57857;DHT22;43683;48.650;9.290;2023-05-10T13:33:49;18.00;74.20
57857;DHT22;43683;48.650;9.290;2023-05-10T13:36:15;18.20;74.00
57857;DHT22;43683;48.650;9.290;2023-05-10T13:38:40;18.20;73.70
57857;DHT22;43683;48.650;9.290;2023-05-10T13:41:06;18.20;73.30
57857;DHT22;43683;48.650;9.290;2023-05-10T13:43:31;18.20;73.30
57857;DHT22;43683;48.650;9.290;2023-05-10T13:45:57;18.40;72.80
57857;DHT22;43683;48.650;9.290;2023-05-10T13:48:22;18.30;72.30
57857;DHT22;43683;48.650;9.290;2023-05-10T13:50:48;18.40;71.60
57857;DHT22;43683;48.650;9.290;2023-05-10T13:53:13;18.10;71.60
57857;DHT22;43683;48.650;9.290;2023-05-10T13:55:39;18.10;71.30
57857;DHT22;43683;48.650;9.290;2023-05-10T13:58:05;18.00;71.20
57857;DHT22;43683;48.650;9.290;2023-05-10T14:00:30;18.00;70.80
57857;DHT22;43683;48.650;9.290;2023-05-10T14:02:56;17.80;70.70
57857;DHT22;43683;48.650;9.290;2023-05-10T14:05:21;17.60;70.80
57857;DHT22;43683;48.650;9.290;2023-05-10T14:07:49;17.60;70.70
57857;DHT22;43683;48.650;9.290;2023-05-10T14:10:15;17.60;70.50
57857;DHT22;43683;48.650;9.290;2023-05-10T14:12:41;17.60;70.30
57857;DHT22;43683;48.650;9.290;2023-05-10T14:15:06;17.70;69.90
57857;DHT22;43683;48.650;9.290;2023-05-10T14:17:32;17.70;69.50
57857;DHT22;43683;48.650;9.290;2023-05-10T14:19:58;17.80;69.30
57857;DHT22;43683;48.650;9.290;2023-05-10T14:22:23;17.70;69.10
57857;DHT22;43683;48.650;9.290;2023-05-10T14:24:49;17.80;68.80
57857;DHT22;43683;48.650;9.290;2023-05-10T14:27:15;17.80;68.50
57857;DHT22;43683;48.650;9.290;2023-05-10T14:29:41;18.00;68.10
57857;DHT22;43683;48.650;9.290;2023-05-10T14:32:07;18.00;67.90
57857;DHT22;43683;48.650;9.290;2023-05-10T14:34:33;18.10;67.80
57857;DHT22;43683;48.650;9.290;2023-05-10T14:36:58;18.00;67.50
57857;DHT22;43683;48.650;9.290;2023-05-10T14:39:24;17.90;67.50
57857;DHT22;43683;48.650;9.290;2023-05-10T14:41:50;17.90;67.40
57857;DHT22;43683;48.650;9.290;2023-05-10T14:44:18;17.80;67.30
57857;DHT22;43683;48.650;9.290;2023-05-10T14:46:43;17.90;67.30
57857;DHT22;43683;48.650;9.290;2023-05-10T14:49:09;17.80;67.10
57857;DHT22;43683;48.650;9.290;2023-05-10T14:51:34;17.80;66.90
57857;DHT22;43683;48.650;9.290;2023-05-10T14:54:02;17.80;66.80
57857;DHT22;43683;48.650;9.290;2023-05-10T14:56:27;17.80;66.70
57857;DHT22;43683;48.650;9.290;2023-05-10T14:58:53;17.80;66.60
57857;DHT22;43683;48.650;9.290;2023-05-10T15:01:18;17.70;66.40
57857;DHT22;43683;48.650;9.290;2023-05-10T15:03:44;17.70;66.30
57857;DHT22;43683;48.650;9.290;2023-05-10T15:06:10;17.60;66.20
57857;DHT22;43683;48.650;9.290;2023-05-10T15:08:35;17.60;66.10
57857;DHT22;43683;48.650;9.290;2023-05-10T15:11:01;17.60;66.00
57857;DHT22;43683;48.650;9.290;2023-05-10T15:13:26;17.50;66.10
57857;DHT22;43683;48.650;9.290;2023-05-10T15:15:52;17.60;65.90
57857;DHT22;43683;48.650;9.290;2023-05-10T15:18:18;17.60;66.00
57857;DHT22;43683;48.650;9.290;2023-05-10T15:20:43;17.70;66.00
57857;DHT22;43683;48.650;9.290;2023-05-10T15:23:09;17.60;65.80
57857;DHT22;43683;48.650;9.290;2023-05-10T15:25:34;17.60;65.50
57857;DHT22;43683;48.650;9.290;2023-05-10T15:28:02;17.60;65.40
57857;DHT22;43683;48.650;9.290;2023-05-10T15:30:28;17.60;65.10
57857;DHT22;43683;48.650;9.290;2023-05-10T15:32:54;17.60;65.10
57857;DHT22;43683;48.650;9.290;2023-05-10T15:35:20;17.50;64.90
57857;DHT22;43683;48.650;9.290;2023-05-10T15:37:47;17.50;64.60
57857;DHT22;43683;48.650;9.290;2023-05-10T15:40:13;17.60;64.40
57857;DHT22;43683;48.650;9.290;2023-05-10T15:42:38;17.60;64.30
57857;DHT22;43683;48.650;9.290;2023-05-10T15:45:04;17.60;64.10
57857;DHT22;43683;48.650;9.290;2023-05-10T15:47:30;17.70;64.10
57857;DHT22;43683;48.650;9.290;2023-05-10T15:49:56;17.80;64.00
57857;DHT22;43683;48.650;9.290;2023-05-10T15:52:22;17.80;64.00
57857;DHT22;43683;48.650;9.290;2023-05-10T15:54:48;17.80;64.30
57857;DHT22;43683;48.650;9.290;2023-05-10T15:57:14;17.70;64.60
57857;DHT22;43683;48.650;9.290;2023-05-10T15:59:39;17.60;65.10